sensor_id;sensor_type;location;lat;lon;timestamp;P1;durP1;ratioP1;P2;durP2;ratioP2
14102;SDS011;7129;48.832;12.472;2022-09-28T00:03:17;1.85;;;0.90;;
14102;SDS011;7129;48.832;12.472;2022-09-28T00:08:20;1.23;;;0.68;;
14102;SDS011;7129;48.832;12.472;2022-09-28T00:13:22;0.60;;;0.60;;
14102;SDS011;7129;48.832;12.472;2022-09-28T00:18:25;1.90;;;0.80;;
14102;SDS011;7129;48.832;12.472;2022-09-28T00:23:28;0.57;;;0.57;;
14102;SDS011;7129;48.832;12.472;2022-09-28T00:28:30;0.98;;;0.85;;
14102;SDS011;7129;48.832;12.472;2022-09-28T00:33:33;0.57;;;0.57;;
14102;SDS011;7129;48.832;12.472;2022-09-28T00:38:35;1.60;;;0.60;;
14102;SDS011;7129;48.832;12.472;2022-09-28T00:43:39;0.70;;;0.70;;
14102;SDS011;7129;48.832;12.472;2022-09-28T00:48:46;0.68;;;0.68;;
14102;SDS011;7129;48.832;12.472;2022-09-28T00:53:51;1.00;;;0.63;;
14102;SDS011;7129;48.832;12.472;2022-09-28T00:58:55;0.70;;;0.65;;
14102;SDS011;7129;48.832;12.472;2022-09-28T01:04:00;1.33;;;0.60;;
14102;SDS011;7129;48.832;12.472;2022-09-28T01:09:04;1.63;;;0.70;;
14102;SDS011;7129;48.832;12.472;2022-09-28T01:14:11;0.65;;;0.65;;
14102;SDS011;7129;48.832;12.472;2022-09-28T01:19:21;1.95;;;0.60;;
14102;SDS011;7129;48.832;12.472;2022-09-28T01:24:38;1.40;;;0.80;;
14102;SDS011;7129;48.832;12.472;2022-09-28T01:29:45;1.70;;;0.70;;
14102;SDS011;7129;48.832;12.472;2022-09-28T01:34:54;2.20;;;0.63;;
14102;SDS011;7129;48.832;12.472;2022-09-28T01:40:00;1.58;;;0.60;;
14102;SDS011;7129;48.832;12.472;2022-09-28T01:45:05;1.00;;;0.82;;
14102;SDS011;7129;48.832;12.472;2022-09-28T01:50:13;1.50;;;0.98;;
14102;SDS011;7129;48.832;12.472;2022-09-28T01:55:18;0.80;;;0.80;;
14102;SDS011;7129;48.832;12.472;2022-09-28T02:00:28;3.08;;;1.10;;
14102;SDS011;7129;48.832;12.472;2022-09-28T02:05:31;0.90;;;0.85;;
14102;SDS011;7129;48.832;12.472;2022-09-28T02:10:37;1.90;;;1.08;;
14102;SDS011;7129;48.832;12.472;2022-09-28T02:15:48;2.45;;;1.50;;
14102;SDS011;7129;48.832;12.472;2022-09-28T02:20:54;1.95;;;1.55;;
14102;SDS011;7129;48.832;12.472;2022-09-28T02:26:01;3.00;;;1.58;;
14102;SDS011;7129;48.832;12.472;2022-09-28T02:36:44;1.40;;;1.33;;
14102;SDS011;7129;48.832;12.472;2022-09-28T02:41:50;1.48;;;1.38;;
14102;SDS011;7129;48.832;12.472;2022-09-28T02:47:03;1.88;;;1.30;;
14102;SDS011;7129;48.832;12.472;2022-09-28T02:52:14;1.40;;;1.30;;
14102;SDS011;7129;48.832;12.472;2022-09-28T02:57:28;1.65;;;1.42;;
14102;SDS011;7129;48.832;12.472;2022-09-28T03:02:41;2.80;;;1.60;;
14102;SDS011;7129;48.832;12.472;2022-09-28T03:07:53;2.35;;;1.50;;
14102;SDS011;7129;48.832;12.472;2022-09-28T03:12:58;1.77;;;1.67;;
14102;SDS011;7129;48.832;12.472;2022-09-28T03:18:03;1.90;;;1.70;;
14102;SDS011;7129;48.832;12.472;2022-09-28T03:23:05;1.90;;;1.75;;
14102;SDS011;7129;48.832;12.472;2022-09-28T03:28:06;2.50;;;2.30;;
14102;SDS011;7129;48.832;12.472;2022-09-28T03:33:10;2.22;;;2.10;;
14102;SDS011;7129;48.832;12.472;2022-09-28T03:38:11;1.80;;;1.70;;
14102;SDS011;7129;48.832;12.472;2022-09-28T03:43:13;1.98;;;1.67;;
14102;SDS011;7129;48.832;12.472;2022-09-28T03:48:16;1.75;;;1.65;;
14102;SDS011;7129;48.832;12.472;2022-09-28T03:53:22;3.08;;;2.00;;
14102;SDS011;7129;48.832;12.472;2022-09-28T03:58:24;3.08;;;1.83;;
14102;SDS011;7129;48.832;12.472;2022-09-28T04:03:30;2.45;;;2.25;;
14102;SDS011;7129;48.832;12.472;2022-09-28T04:08:32;2.58;;;2.33;;
14102;SDS011;7129;48.832;12.472;2022-09-28T04:13:33;3.33;;;3.03;;
14102;SDS011;7129;48.832;12.472;2022-09-28T04:18:37;3.03;;;2.63;;
14102;SDS011;7129;48.832;12.472;2022-09-28T04:23:39;2.60;;;2.40;;
14102;SDS011;7129;48.832;12.472;2022-09-28T04:28:42;3.08;;;2.88;;
14102;SDS011;7129;48.832;12.472;2022-09-28T04:34:03;3.20;;;2.22;;
14102;SDS011;7129;48.832;12.472;2022-09-28T04:39:04;5.18;;;2.95;;
14102;SDS011;7129;48.832;12.472;2022-09-28T04:44:07;3.17;;;2.88;;
14102;SDS011;7129;48.832;12.472;2022-09-28T04:49:10;2.53;;;2.20;;
14102;SDS011;7129;48.832;12.472;2022-09-28T04:54:12;2.75;;;2.28;;
14102;SDS011;7129;48.832;12.472;2022-09-28T04:59:14;2.90;;;2.47;;
14102;SDS011;7129;48.832;12.472;2022-09-28T05:04:17;2.60;;;2.28;;
14102;SDS011;7129;48.832;12.472;2022-09-28T05:09:19;2.08;;;1.98;;
14102;SDS011;7129;48.832;12.472;2022-09-28T05:14:21;1.90;;;1.70;;
14102;SDS011;7129;48.832;12.472;2022-09-28T05:19:24;1.52;;;1.42;;
14102;SDS011;7129;48.832;12.472;2022-09-28T05:24:26;2.33;;;1.23;;
14102;SDS011;7129;48.832;12.472;2022-09-28T05:29:28;1.23;;;1.13;;
14102;SDS011;7129;48.832;12.472;2022-09-28T05:34:31;1.10;;;1.10;;
14102;SDS011;7129;48.832;12.472;2022-09-28T05:39:33;4.03;;;1.13;;
14102;SDS011;7129;48.832;12.472;2022-09-28T05:44:35;1.17;;;0.90;;
14102;SDS011;7129;48.832;12.472;2022-09-28T05:49:38;1.27;;;0.88;;
14102;SDS011;7129;48.832;12.472;2022-09-28T05:54:41;1.05;;;0.90;;
14102;SDS011;7129;48.832;12.472;2022-09-28T05:59:43;1.25;;;0.70;;
14102;SDS011;7129;48.832;12.472;2022-09-28T06:04:46;4.50;;;1.20;;
14102;SDS011;7129;48.832;12.472;2022-09-28T06:09:50;1.27;;;0.70;;
14102;SDS011;7129;48.832;12.472;2022-09-28T06:14:51;1.02;;;0.93;;
14102;SDS011;7129;48.832;12.472;2022-09-28T06:19:55;1.00;;;1.00;;
14102;SDS011;7129;48.832;12.472;2022-09-28T06:24:57;1.35;;;1.25;;
14102;SDS011;7129;48.832;12.472;2022-09-28T06:29:59;0.95;;;0.77;;
14102;SDS011;7129;48.832;12.472;2022-09-28T06:35:02;1.67;;;1.00;;
14102;SDS011;7129;48.832;12.472;2022-09-28T06:40:05;2.33;;;0.90;;
14102;SDS011;7129;48.832;12.472;2022-09-28T06:45:07;0.73;;;0.73;;
14102;SDS011;7129;48.832;12.472;2022-09-28T06:50:12;0.63;;;0.57;;
14102;SDS011;7129;48.832;12.472;2022-09-28T06:55:14;0.63;;;0.60;;
14102;SDS011;7129;48.832;12.472;2022-09-28T07:00:16;1.25;;;0.50;;
14102;SDS011;7129;48.832;12.472;2022-09-28T07:05:19;0.60;;;0.60;;
14102;SDS011;7129;48.832;12.472;2022-09-28T07:10:26;1.63;;;0.70;;
14102;SDS011;7129;48.832;12.472;2022-09-28T07:15:29;0.50;;;0.50;;
14102;SDS011;7129;48.832;12.472;2022-09-28T07:20:33;0.60;;;0.50;;
14102;SDS011;7129;48.832;12.472;2022-09-28T07:25:36;1.60;;;0.50;;
14102;SDS011;7129;48.832;12.472;2022-09-28T07:30:44;0.57;;;0.47;;
14102;SDS011;7129;48.832;12.472;2022-09-28T07:35:50;0.85;;;0.60;;
14102;SDS011;7129;48.832;12.472;2022-09-28T07:40:54;0.80;;;0.63;;
14102;SDS011;7129;48.832;12.472;2022-09-28T07:46:13;0.40;;;0.40;;
14102;SDS011;7129;48.832;12.472;2022-09-28T07:51:17;0.73;;;0.65;;
14102;SDS011;7129;48.832;12.472;2022-09-28T07:56:20;0.82;;;0.50;;
14102;SDS011;7129;48.832;12.472;2022-09-28T08:01:22;0.47;;;0.47;;
14102;SDS011;7129;48.832;12.472;2022-09-28T08:06:25;0.90;;;0.50;;
14102;SDS011;7129;48.832;12.472;2022-09-28T08:11:30;0.75;;;0.60;;
14102;SDS011;7129;48.832;12.472;2022-09-28T08:16:31;0.98;;;0.50;;
14102;SDS011;7129;48.832;12.472;2022-09-28T08:21:35;0.50;;;0.50;;
14102;SDS011;7129;48.832;12.472;2022-09-28T08:26:45;1.05;;;0.50;;
14102;SDS011;7129;48.832;12.472;2022-09-28T08:31:48;0.70;;;0.65;;
14102;SDS011;7129;48.832;12.472;2022-09-28T08:36:51;1.10;;;0.47;;
14102;SDS011;7129;48.832;12.472;2022-09-28T08:41:55;1.13;;;0.60;;
14102;SDS011;7129;48.832;12.472;2022-09-28T08:47:05;0.60;;;0.60;;
14102;SDS011;7129;48.832;12.472;2022-09-28T08:52:36;1.15;;;0.52;;
14102;SDS011;7129;48.832;12.472;2022-09-28T08:57:42;0.60;;;0.60;;
14102;SDS011;7129;48.832;12.472;2022-09-28T09:02:48;0.57;;;0.57;;
14102;SDS011;7129;48.832;12.472;2022-09-28T09:07:55;0.50;;;0.50;;
14102;SDS011;7129;48.832;12.472;2022-09-28T09:13:34;1.05;;;0.60;;
14102;SDS011;7129;48.832;12.472;2022-09-28T09:19:02;0.40;;;0.40;;
14102;SDS011;7129;48.832;12.472;2022-09-28T09:24:19;0.52;;;0.52;;
14102;SDS011;7129;48.832;12.472;2022-09-28T09:29:28;0.45;;;0.45;;
14102;SDS011;7129;48.832;12.472;2022-09-28T09:34:49;2.15;;;0.80;;
14102;SDS011;7129;48.832;12.472;2022-09-28T09:40:19;0.70;;;0.70;;
14102;SDS011;7129;48.832;12.472;2022-09-28T09:45:41;0.85;;;0.70;;
14102;SDS011;7129;48.832;12.472;2022-09-28T09:50:54;0.95;;;0.60;;
14102;SDS011;7129;48.832;12.472;2022-09-28T09:56:03;1.58;;;0.55;;
14102;SDS011;7129;48.832;12.472;2022-09-28T10:01:13;0.43;;;0.43;;
14102;SDS011;7129;48.832;12.472;2022-09-28T10:06:19;0.40;;;0.40;;
14102;SDS011;7129;48.832;12.472;2022-09-28T10:11:28;0.70;;;0.70;;
14102;SDS011;7129;48.832;12.472;2022-09-28T10:16:35;1.20;;;0.60;;
14102;SDS011;7129;48.832;12.472;2022-09-28T10:21:37;0.63;;;0.60;;
14102;SDS011;7129;48.832;12.472;2022-09-28T10:26:43;0.50;;;0.50;;
14102;SDS011;7129;48.832;12.472;2022-09-28T10:31:56;2.60;;;0.60;;
14102;SDS011;7129;48.832;12.472;2022-09-28T10:36:59;0.30;;;0.30;;
14102;SDS011;7129;48.832;12.472;2022-09-28T10:42:06;0.70;;;0.70;;
14102;SDS011;7129;48.832;12.472;2022-09-28T10:47:12;0.50;;;0.50;;
14102;SDS011;7129;48.832;12.472;2022-09-28T10:52:31;0.57;;;0.50;;
14102;SDS011;7129;48.832;12.472;2022-09-28T10:57:38;0.30;;;0.30;;
14102;SDS011;7129;48.832;12.472;2022-09-28T11:02:54;0.77;;;0.57;;
14102;SDS011;7129;48.832;12.472;2022-09-28T11:07:57;0.43;;;0.28;;
14102;SDS011;7129;48.832;12.472;2022-09-28T11:13:01;1.40;;;0.60;;
14102;SDS011;7129;48.832;12.472;2022-09-28T11:18:18;1.08;;;0.82;;
14102;SDS011;7129;48.832;12.472;2022-09-28T11:23:25;2.70;;;0.90;;
14102;SDS011;7129;48.832;12.472;2022-09-28T11:28:32;0.82;;;0.82;;
14102;SDS011;7129;48.832;12.472;2022-09-28T11:33:37;2.38;;;0.75;;
14102;SDS011;7129;48.832;12.472;2022-09-28T11:38:46;2.47;;;0.95;;
14102;SDS011;7129;48.832;12.472;2022-09-28T11:44:01;1.27;;;1.17;;
14102;SDS011;7129;48.832;12.472;2022-09-28T11:49:23;2.95;;;1.20;;
14102;SDS011;7129;48.832;12.472;2022-09-28T11:54:33;2.90;;;1.02;;
14102;SDS011;7129;48.832;12.472;2022-09-28T11:59:44;1.63;;;1.10;;
14102;SDS011;7129;48.832;12.472;2022-09-28T12:04:53;1.30;;;1.20;;
14102;SDS011;7129;48.832;12.472;2022-09-28T12:09:59;1.88;;;1.45;;
14102;SDS011;7129;48.832;12.472;2022-09-28T12:15:13;3.38;;;1.48;;
14102;SDS011;7129;48.832;12.472;2022-09-28T12:20:18;1.65;;;1.45;;
14102;SDS011;7129;48.832;12.472;2022-09-28T12:25:23;1.27;;;1.10;;
14102;SDS011;7129;48.832;12.472;2022-09-28T12:30:44;1.52;;;1.42;;
14102;SDS011;7129;48.832;12.472;2022-09-28T12:36:05;2.10;;;1.60;;
14102;SDS011;7129;48.832;12.472;2022-09-28T12:47:20;2.65;;;1.80;;
14102;SDS011;7129;48.832;12.472;2022-09-28T12:52:35;3.28;;;1.60;;
14102;SDS011;7129;48.832;12.472;2022-09-28T12:57:46;2.28;;;1.30;;
14102;SDS011;7129;48.832;12.472;2022-09-28T13:03:08;1.65;;;1.50;;
14102;SDS011;7129;48.832;12.472;2022-09-28T13:08:42;2.20;;;1.60;;
14102;SDS011;7129;48.832;12.472;2022-09-28T13:13:55;1.48;;;1.38;;
14102;SDS011;7129;48.832;12.472;2022-09-28T13:19:37;1.73;;;1.40;;
14102;SDS011;7129;48.832;12.472;2022-09-28T13:24:48;2.78;;;1.42;;
14102;SDS011;7129;48.832;12.472;2022-09-28T13:29:54;2.00;;;1.67;;
14102;SDS011;7129;48.832;12.472;2022-09-28T13:35:02;1.60;;;1.50;;
14102;SDS011;7129;48.832;12.472;2022-09-28T13:40:06;3.17;;;1.60;;
14102;SDS011;7129;48.832;12.472;2022-09-28T13:45:17;1.80;;;1.70;;
14102;SDS011;7129;48.832;12.472;2022-09-28T13:50:33;1.55;;;1.45;;
14102;SDS011;7129;48.832;12.472;2022-09-28T13:55:48;1.52;;;1.40;;
14102;SDS011;7129;48.832;12.472;2022-09-28T14:00:57;2.88;;;1.33;;
14102;SDS011;7129;48.832;12.472;2022-09-28T14:06:06;2.25;;;1.40;;
14102;SDS011;7129;48.832;12.472;2022-09-28T14:17:04;2.50;;;1.50;;
14102;SDS011;7129;48.832;12.472;2022-09-28T14:28:29;1.50;;;1.40;;
14102;SDS011;7129;48.832;12.472;2022-09-28T14:33:42;1.92;;;1.00;;
14102;SDS011;7129;48.832;12.472;2022-09-28T14:38:56;3.15;;;1.38;;
14102;SDS011;7129;48.832;12.472;2022-09-28T14:44:17;1.10;;;1.00;;
14102;SDS011;7129;48.832;12.472;2022-09-28T14:54:51;1.98;;;1.48;;
14102;SDS011;7129;48.832;12.472;2022-09-28T14:59:55;2.83;;;1.15;;
14102;SDS011;7129;48.832;12.472;2022-09-28T15:05:01;1.38;;;0.90;;
14102;SDS011;7129;48.832;12.472;2022-09-28T15:10:20;3.42;;;1.10;;
14102;SDS011;7129;48.832;12.472;2022-09-28T15:15:26;2.15;;;1.30;;
14102;SDS011;7129;48.832;12.472;2022-09-28T15:20:34;1.85;;;1.25;;
14102;SDS011;7129;48.832;12.472;2022-09-28T15:25:38;1.38;;;1.27;;
14102;SDS011;7129;48.832;12.472;2022-09-28T15:30:41;1.52;;;1.17;;
14102;SDS011;7129;48.832;12.472;2022-09-28T15:35:44;1.95;;;1.40;;
14102;SDS011;7129;48.832;12.472;2022-09-28T15:41:32;1.25;;;1.05;;
14102;SDS011;7129;48.832;12.472;2022-09-28T15:46:36;1.83;;;1.05;;
14102;SDS011;7129;48.832;12.472;2022-09-28T15:51:44;1.55;;;1.33;;
14102;SDS011;7129;48.832;12.472;2022-09-28T15:56:51;1.25;;;1.02;;
14102;SDS011;7129;48.832;12.472;2022-09-28T16:07:53;1.33;;;1.23;;
14102;SDS011;7129;48.832;12.472;2022-09-28T16:12:55;2.88;;;1.58;;
14102;SDS011;7129;48.832;12.472;2022-09-28T16:18:13;3.28;;;1.80;;
14102;SDS011;7129;48.832;12.472;2022-09-28T16:23:20;2.35;;;1.70;;
14102;SDS011;7129;48.832;12.472;2022-09-28T16:28:26;2.28;;;1.30;;
14102;SDS011;7129;48.832;12.472;2022-09-28T16:33:51;1.63;;;1.48;;
14102;SDS011;7129;48.832;12.472;2022-09-28T16:38:56;2.42;;;1.35;;
14102;SDS011;7129;48.832;12.472;2022-09-28T16:43:58;1.88;;;1.40;;
14102;SDS011;7129;48.832;12.472;2022-09-28T16:49:02;2.40;;;1.60;;
14102;SDS011;7129;48.832;12.472;2022-09-28T16:54:21;1.48;;;1.33;;
14102;SDS011;7129;48.832;12.472;2022-09-28T16:59:41;1.85;;;1.30;;
14102;SDS011;7129;48.832;12.472;2022-09-28T17:04:43;4.03;;;1.42;;
14102;SDS011;7129;48.832;12.472;2022-09-28T17:09:49;5.03;;;1.70;;
14102;SDS011;7129;48.832;12.472;2022-09-28T17:14:51;2.13;;;1.60;;
14102;SDS011;7129;48.832;12.472;2022-09-28T17:19:55;1.77;;;1.48;;
14102;SDS011;7129;48.832;12.472;2022-09-28T17:24:58;1.77;;;1.67;;
14102;SDS011;7129;48.832;12.472;2022-09-28T17:29:59;2.38;;;1.75;;
14102;SDS011;7129;48.832;12.472;2022-09-28T17:35:01;1.90;;;1.63;;
14102;SDS011;7129;48.832;12.472;2022-09-28T17:40:11;2.70;;;1.63;;
14102;SDS011;7129;48.832;12.472;2022-09-28T17:45:16;2.30;;;1.95;;
14102;SDS011;7129;48.832;12.472;2022-09-28T17:50:19;2.30;;;2.10;;
14102;SDS011;7129;48.832;12.472;2022-09-28T17:55:24;1.92;;;1.77;;
14102;SDS011;7129;48.832;12.472;2022-09-28T18:00:29;1.67;;;1.58;;
14102;SDS011;7129;48.832;12.472;2022-09-28T18:05:33;2.35;;;2.17;;
14102;SDS011;7129;48.832;12.472;2022-09-28T18:10:38;2.95;;;1.83;;
14102;SDS011;7129;48.832;12.472;2022-09-28T18:15:40;5.18;;;2.28;;
14102;SDS011;7129;48.832;12.472;2022-09-28T18:20:42;4.03;;;2.70;;
14102;SDS011;7129;48.832;12.472;2022-09-28T18:25:46;3.30;;;2.72;;
14102;SDS011;7129;48.832;12.472;2022-09-28T18:30:48;6.03;;;3.40;;
14102;SDS011;7129;48.832;12.472;2022-09-28T18:35:50;4.68;;;2.67;;
14102;SDS011;7129;48.832;12.472;2022-09-28T18:40:54;4.72;;;2.38;;
14102;SDS011;7129;48.832;12.472;2022-09-28T18:45:56;4.07;;;2.60;;
14102;SDS011;7129;48.832;12.472;2022-09-28T18:50:58;4.40;;;3.20;;
14102;SDS011;7129;48.832;12.472;2022-09-28T18:56:04;2.80;;;2.60;;
14102;SDS011;7129;48.832;12.472;2022-09-28T19:01:09;4.13;;;3.30;;
14102;SDS011;7129;48.832;12.472;2022-09-28T19:06:12;5.05;;;3.40;;
14102;SDS011;7129;48.832;12.472;2022-09-28T19:11:17;3.35;;;3.08;;
14102;SDS011;7129;48.832;12.472;2022-09-28T19:16:20;4.38;;;3.13;;
14102;SDS011;7129;48.832;12.472;2022-09-28T19:21:23;3.70;;;3.40;;
14102;SDS011;7129;48.832;12.472;2022-09-28T19:26:28;8.48;;;4.03;;
14102;SDS011;7129;48.832;12.472;2022-09-28T19:31:30;5.72;;;4.22;;
14102;SDS011;7129;48.832;12.472;2022-09-28T19:36:32;6.32;;;4.28;;
14102;SDS011;7129;48.832;12.472;2022-09-28T19:41:36;4.22;;;3.75;;
14102;SDS011;7129;48.832;12.472;2022-09-28T19:46:42;8.60;;;4.68;;
14102;SDS011;7129;48.832;12.472;2022-09-28T19:51:45;5.13;;;3.58;;
14102;SDS011;7129;48.832;12.472;2022-09-28T19:56:49;4.22;;;3.80;;
14102;SDS011;7129;48.832;12.472;2022-09-28T20:01:51;4.90;;;3.95;;
14102;SDS011;7129;48.832;12.472;2022-09-28T20:06:55;4.55;;;3.95;;
14102;SDS011;7129;48.832;12.472;2022-09-28T20:11:58;4.63;;;3.90;;
14102;SDS011;7129;48.832;12.472;2022-09-28T20:17:00;4.80;;;4.03;;
14102;SDS011;7129;48.832;12.472;2022-09-28T20:22:03;5.85;;;4.20;;
14102;SDS011;7129;48.832;12.472;2022-09-28T20:27:06;6.30;;;5.35;;
14102;SDS011;7129;48.832;12.472;2022-09-28T20:32:08;5.32;;;4.63;;
14102;SDS011;7129;48.832;12.472;2022-09-28T20:37:10;5.07;;;4.00;;
14102;SDS011;7129;48.832;12.472;2022-09-28T20:42:14;4.80;;;4.40;;
14102;SDS011;7129;48.832;12.472;2022-09-28T20:47:16;4.63;;;4.22;;
14102;SDS011;7129;48.832;12.472;2022-09-28T20:52:18;6.15;;;4.82;;
14102;SDS011;7129;48.832;12.472;2022-09-28T20:57:21;9.18;;;5.30;;
14102;SDS011;7129;48.832;12.472;2022-09-28T21:02:25;5.38;;;4.88;;
14102;SDS011;7129;48.832;12.472;2022-09-28T21:07:27;5.00;;;4.50;;
14102;SDS011;7129;48.832;12.472;2022-09-28T21:12:31;5.10;;;4.50;;
14102;SDS011;7129;48.832;12.472;2022-09-28T21:17:36;9.35;;;4.43;;
14102;SDS011;7129;48.832;12.472;2022-09-28T21:22:38;5.65;;;4.78;;
14102;SDS011;7129;48.832;12.472;2022-09-28T21:27:44;6.70;;;4.68;;
14102;SDS011;7129;48.832;12.472;2022-09-28T21:32:47;5.03;;;4.35;;
14102;SDS011;7129;48.832;12.472;2022-09-28T21:37:49;6.53;;;4.47;;
14102;SDS011;7129;48.832;12.472;2022-09-28T21:42:53;4.03;;;3.58;;
14102;SDS011;7129;48.832;12.472;2022-09-28T21:47:55;6.45;;;4.97;;
14102;SDS011;7129;48.832;12.472;2022-09-28T21:52:58;5.20;;;4.22;;
14102;SDS011;7129;48.832;12.472;2022-09-28T21:58:03;5.28;;;4.10;;
14102;SDS011;7129;48.832;12.472;2022-09-28T22:03:05;4.30;;;3.70;;
14102;SDS011;7129;48.832;12.472;2022-09-28T22:08:07;4.80;;;4.20;;
14102;SDS011;7129;48.832;12.472;2022-09-28T22:13:25;8.73;;;4.13;;
14102;SDS011;7129;48.832;12.472;2022-09-28T22:18:27;4.78;;;3.95;;
14102;SDS011;7129;48.832;12.472;2022-09-28T22:23:31;4.13;;;3.67;;
14102;SDS011;7129;48.832;12.472;2022-09-28T22:28:34;4.43;;;3.60;;
14102;SDS011;7129;48.832;12.472;2022-09-28T22:33:36;4.18;;;3.65;;
14102;SDS011;7129;48.832;12.472;2022-09-28T22:38:38;5.10;;;3.88;;
14102;SDS011;7129;48.832;12.472;2022-09-28T22:43:42;4.20;;;3.80;;
14102;SDS011;7129;48.832;12.472;2022-09-28T22:48:45;3.95;;;3.30;;
14102;SDS011;7129;48.832;12.472;2022-09-28T22:53:47;3.25;;;2.97;;
14102;SDS011;7129;48.832;12.472;2022-09-28T22:58:50;3.78;;;3.20;;
14102;SDS011;7129;48.832;12.472;2022-09-28T23:03:53;2.97;;;2.50;;
14102;SDS011;7129;48.832;12.472;2022-09-28T23:08:55;3.63;;;3.22;;
14102;SDS011;7129;48.832;12.472;2022-09-28T23:13:59;3.05;;;2.83;;
14102;SDS011;7129;48.832;12.472;2022-09-28T23:19:00;4.78;;;2.60;;
14102;SDS011;7129;48.832;12.472;2022-09-28T23:24:02;2.67;;;2.42;;
14102;SDS011;7129;48.832;12.472;2022-09-28T23:29:06;3.42;;;2.75;;
14102;SDS011;7129;48.832;12.472;2022-09-28T23:34:10;4.60;;;2.83;;
14102;SDS011;7129;48.832;12.472;2022-09-28T23:39:12;3.05;;;2.75;;
14102;SDS011;7129;48.832;12.472;2022-09-28T23:44:15;4.07;;;2.78;;
14102;SDS011;7129;48.832;12.472;2022-09-28T23:49:17;3.20;;;2.75;;
14102;SDS011;7129;48.832;12.472;2022-09-28T23:54:19;2.83;;;2.63;;
14102;SDS011;7129;48.832;12.472;2022-09-28T23:59:22;3.60;;;2.65;;
